sensor_id;sensor_type;location;lat;lon;timestamp;pressure;altitude;pressure_sealevel;temperature
37414;BMP280;23279;46.472;30.760;2023-01-01T00:01:08;79208.31;;;-146.33
37414;BMP280;23279;46.472;30.760;2023-01-01T00:03:34;79212.38;;;-146.33
37414;BMP280;23279;46.472;30.760;2023-01-01T00:06:12;79198.13;;;-146.33
37414;BMP280;23279;46.472;30.760;2023-01-01T00:08:38;79216.44;;;-146.33
37414;BMP280;23279;46.472;30.760;2023-01-01T00:11:05;79230.69;;;-146.33
37414;BMP280;23279;46.472;30.760;2023-01-01T00:13:32;79240.88;;;-146.33
37414;BMP280;23279;46.472;30.760;2023-01-01T00:16:08;79236.81;;;-146.33
37414;BMP280;23279;46.472;30.760;2023-01-01T00:18:34;79240.88;;;-146.33
37414;BMP280;23279;46.472;30.760;2023-01-01T00:21:01;79257.16;;;-146.33
37414;BMP280;23279;46.472;30.760;2023-01-01T00:23:27;79265.31;;;-146.33
37414;BMP280;23279;46.472;30.760;2023-01-01T00:25:52;79261.22;;;-146.33
37414;BMP280;23279;46.472;30.760;2023-01-01T00:28:17;79249.03;;;-146.33
37414;BMP280;23279;46.472;30.760;2023-01-01T00:30:43;79246.97;;;-146.33
37414;BMP280;23279;46.472;30.760;2023-01-01T00:33:08;79251.06;;;-146.33
37414;BMP280;23279;46.472;30.760;2023-01-01T00:35:34;79251.06;;;-146.33
37414;BMP280;23279;46.472;30.760;2023-01-01T00:37:59;79259.19;;;-146.33
37414;BMP280;23279;46.472;30.760;2023-01-01T00:40:25;79249.03;;;-146.33
37414;BMP280;23279;46.472;30.760;2023-01-01T00:42:50;79257.16;;;-146.33
37414;BMP280;23279;46.472;30.760;2023-01-01T00:45:16;79267.34;;;-146.33
37414;BMP280;23279;46.472;30.760;2023-01-01T00:47:41;79281.59;;;-146.33
37414;BMP280;23279;46.472;30.760;2023-01-01T00:50:07;79281.59;;;-146.33
37414;BMP280;23279;46.472;30.760;2023-01-01T00:52:32;79293.81;;;-146.33
37414;BMP280;23279;46.472;30.760;2023-01-01T00:54:57;79289.72;;;-146.33
37414;BMP280;23279;46.472;30.760;2023-01-01T00:57:23;79306.03;;;-146.33
37414;BMP280;23279;46.472;30.760;2023-01-01T00:59:48;79310.09;;;-146.33
37414;BMP280;23279;46.472;30.760;2023-01-01T01:02:14;79301.94;;;-146.33
37414;BMP280;23279;46.472;30.760;2023-01-01T01:04:39;79301.94;;;-146.33
37414;BMP280;23279;46.472;30.760;2023-01-01T01:07:05;79310.09;;;-146.33
37414;BMP280;23279;46.472;30.760;2023-01-01T01:09:30;79310.09;;;-146.33
37414;BMP280;23279;46.472;30.760;2023-01-01T01:11:56;79297.88;;;-146.33
37414;BMP280;23279;46.472;30.760;2023-01-01T01:14:21;79289.72;;;-146.33
37414;BMP280;23279;46.472;30.760;2023-01-01T01:16:46;79293.81;;;-146.33
37414;BMP280;23279;46.472;30.760;2023-01-01T01:19:12;79287.69;;;-146.33
37414;BMP280;23279;46.472;30.760;2023-01-01T01:21:43;79279.56;;;-146.33
37414;BMP280;23279;46.472;30.760;2023-01-01T01:24:09;79253.09;;;-146.33
37414;BMP280;23279;46.472;30.760;2023-01-01T01:26:35;79249.03;;;-146.33
37414;BMP280;23279;46.472;30.760;2023-01-01T01:29:01;79242.91;;;-146.33
37414;BMP280;23279;46.472;30.760;2023-01-01T01:31:29;79246.97;;;-146.33
37414;BMP280;23279;46.472;30.760;2023-01-01T01:33:55;79230.69;;;-146.33
37414;BMP280;23279;46.472;30.760;2023-01-01T01:36:21;79232.72;;;-146.33
37414;BMP280;23279;46.472;30.760;2023-01-01T01:38:46;79261.22;;;-146.33
37414;BMP280;23279;46.472;30.760;2023-01-01T01:41:17;79281.59;;;-146.33
37414;BMP280;23279;46.472;30.760;2023-01-01T01:46:17;79295.84;;;-146.33
37414;BMP280;23279;46.472;30.760;2023-01-01T01:48:49;79285.66;;;-146.33
37414;BMP280;23279;46.472;30.760;2023-01-01T01:51:21;79291.78;;;-146.33
37414;BMP280;23279;46.472;30.760;2023-01-01T01:53:50;79287.69;;;-146.33
37414;BMP280;23279;46.472;30.760;2023-01-01T01:56:24;79279.56;;;-146.33
37414;BMP280;23279;46.472;30.760;2023-01-01T01:58:51;79259.19;;;-146.33
37414;BMP280;23279;46.472;30.760;2023-01-01T02:01:17;79271.41;;;-146.33
37414;BMP280;23279;46.472;30.760;2023-01-01T02:03:51;79246.97;;;-146.33
37414;BMP280;23279;46.472;30.760;2023-01-01T02:06:18;79242.91;;;-146.33
37414;BMP280;23279;46.472;30.760;2023-01-01T02:08:44;79232.72;;;-146.33
37414;BMP280;23279;46.472;30.760;2023-01-01T02:11:10;79224.59;;;-146.33
37414;BMP280;23279;46.472;30.760;2023-01-01T02:13:35;79204.22;;;-146.33
37414;BMP280;23279;46.472;30.760;2023-01-01T02:16:12;79204.22;;;-146.33
37414;BMP280;23279;46.472;30.760;2023-01-01T02:18:45;79216.44;;;-146.33
37414;BMP280;23279;46.472;30.760;2023-01-01T02:21:17;79232.72;;;-146.33
37414;BMP280;23279;46.472;30.760;2023-01-01T02:32:05;79216.44;;;-146.33
37414;BMP280;23279;46.472;30.760;2023-01-01T02:34:43;79232.72;;;-146.33
37414;BMP280;23279;46.472;30.760;2023-01-01T02:37:11;79234.78;;;-146.33
37414;BMP280;23279;46.472;30.760;2023-01-01T02:39:42;79232.72;;;-146.33
37414;BMP280;23279;46.472;30.760;2023-01-01T02:42:08;79228.66;;;-146.33
37414;BMP280;23279;46.472;30.760;2023-01-01T02:44:36;79214.41;;;-146.33
37414;BMP280;23279;46.472;30.760;2023-01-01T02:47:12;79212.38;;;-146.33
37414;BMP280;23279;46.472;30.760;2023-01-01T02:49:44;79204.22;;;-146.33
37414;BMP280;23279;46.472;30.760;2023-01-01T02:53:02;79196.09;;;-146.33
37414;BMP280;23279;46.472;30.760;2023-01-01T02:55:08;79181.84;;;-146.33
37414;BMP280;23279;46.472;30.760;2023-01-01T02:57:44;79187.94;;;-146.33
37414;BMP280;23279;46.472;30.760;2023-01-01T03:00:14;79202.19;;;-146.33
37414;BMP280;23279;46.472;30.760;2023-01-01T03:05:36;79208.31;;;-146.33
37414;BMP280;23279;46.472;30.760;2023-01-01T03:08:30;79192.00;;;-146.33
37414;BMP280;23279;46.472;30.760;2023-01-01T03:11:10;79194.06;;;-146.33
37414;BMP280;23279;46.472;30.760;2023-01-01T03:13:56;79175.72;;;-146.33
37414;BMP280;23279;46.472;30.760;2023-01-01T03:16:39;79163.50;;;-146.33
37414;BMP280;23279;46.472;30.760;2023-01-01T03:19:16;79167.59;;;-146.33
37414;BMP280;23279;46.472;30.760;2023-01-01T03:24:19;79147.22;;;-146.33
37414;BMP280;23279;46.472;30.760;2023-01-01T03:26:48;79183.88;;;-146.33
37414;BMP280;23279;46.472;30.760;2023-01-01T03:29:15;79187.94;;;-146.33
37414;BMP280;23279;46.472;30.760;2023-01-01T03:31:43;79212.38;;;-146.33
37414;BMP280;23279;46.472;30.760;2023-01-01T03:34:24;79208.31;;;-146.33
37414;BMP280;23279;46.472;30.760;2023-01-01T03:36:55;79208.31;;;-146.33
37414;BMP280;23279;46.472;30.760;2023-01-01T03:39:29;79224.59;;;-146.33
37414;BMP280;23279;46.472;30.760;2023-01-01T03:44:49;79224.59;;;-146.33
37414;BMP280;23279;46.472;30.760;2023-01-01T03:47:16;79210.34;;;-146.33
37414;BMP280;23279;46.472;30.760;2023-01-01T03:49:42;79192.00;;;-146.33
37414;BMP280;23279;46.472;30.760;2023-01-01T03:55:18;79130.94;;;-146.33
37414;BMP280;23279;46.472;30.760;2023-01-01T04:00:22;79151.31;;;-146.33
37414;BMP280;23279;46.472;30.760;2023-01-01T04:03:13;79175.72;;;-146.33
37414;BMP280;23279;46.472;30.760;2023-01-01T04:05:40;79218.47;;;-146.33
37414;BMP280;23279;46.472;30.760;2023-01-01T04:08:07;79226.63;;;-146.33
37414;BMP280;23279;46.472;30.760;2023-01-01T04:10:36;79240.88;;;-146.33
37414;BMP280;23279;46.472;30.760;2023-01-01T04:13:04;79236.81;;;-146.33
37414;BMP280;23279;46.472;30.760;2023-01-01T04:15:31;79244.94;;;-146.33
37414;BMP280;23279;46.472;30.760;2023-01-01T04:17:56;79251.06;;;-146.33
37414;BMP280;23279;46.472;30.760;2023-01-01T04:20:23;79261.22;;;-146.33
37414;BMP280;23279;46.472;30.760;2023-01-01T04:22:49;79273.44;;;-146.33
37414;BMP280;23279;46.472;30.760;2023-01-01T04:25:15;79277.53;;;-146.33
37414;BMP280;23279;46.472;30.760;2023-01-01T04:27:41;79295.84;;;-146.33
37414;BMP280;23279;46.472;30.760;2023-01-01T04:30:09;79314.16;;;-146.33
37414;BMP280;23279;46.472;30.760;2023-01-01T04:32:36;79352.84;;;-146.33
37414;BMP280;23279;46.472;30.760;2023-01-01T04:35:01;79354.88;;;-146.33
37414;BMP280;23279;46.472;30.760;2023-01-01T04:37:26;79369.13;;;-146.33
37414;BMP280;23279;46.472;30.760;2023-01-01T04:39:52;79391.53;;;-146.33
37414;BMP280;23279;46.472;30.760;2023-01-01T04:42:18;79411.88;;;-146.33
37414;BMP280;23279;46.472;30.760;2023-01-01T04:44:43;79428.19;;;-146.33
37414;BMP280;23279;46.472;30.760;2023-01-01T04:47:09;79432.25;;;-146.33
37414;BMP280;23279;46.472;30.760;2023-01-01T04:49:34;79407.81;;;-146.33
37414;BMP280;23279;46.472;30.760;2023-01-01T04:51:59;79436.31;;;-146.33
37414;BMP280;23279;46.472;30.760;2023-01-01T04:54:25;79446.50;;;-146.33
37414;BMP280;23279;46.472;30.760;2023-01-01T04:56:50;79472.97;;;-146.33
37414;BMP280;23279;46.472;30.760;2023-01-01T04:59:16;79444.47;;;-146.33
37414;BMP280;23279;46.472;30.760;2023-01-01T05:01:41;79448.53;;;-146.33
37414;BMP280;23279;46.472;30.760;2023-01-01T05:04:08;79444.47;;;-146.33
37414;BMP280;23279;46.472;30.760;2023-01-01T05:06:36;79448.53;;;-146.33
37414;BMP280;23279;46.472;30.760;2023-01-01T05:09:01;79468.88;;;-146.33
37414;BMP280;23279;46.472;30.760;2023-01-01T05:11:29;79440.38;;;-146.33
37414;BMP280;23279;46.472;30.760;2023-01-01T05:13:59;79409.84;;;-146.33
37414;BMP280;23279;46.472;30.760;2023-01-01T05:16:29;79350.81;;;-146.33
37414;BMP280;23279;46.472;30.760;2023-01-01T05:18:55;79336.56;;;-146.33
37414;BMP280;23279;46.472;30.760;2023-01-01T05:21:26;79326.38;;;-146.33
37414;BMP280;23279;46.472;30.760;2023-01-01T05:23:56;79361.00;;;-146.33
37414;BMP280;23279;46.472;30.760;2023-01-01T05:26:26;79363.03;;;-146.33
37414;BMP280;23279;46.472;30.760;2023-01-01T05:28:53;79344.69;;;-146.33
37414;BMP280;23279;46.472;30.760;2023-01-01T05:31:21;79334.53;;;-146.33
37414;BMP280;23279;46.472;30.760;2023-01-01T05:33:48;79320.28;;;-146.33
37414;BMP280;23279;46.472;30.760;2023-01-01T05:36:16;79320.28;;;-146.33
37414;BMP280;23279;46.472;30.760;2023-01-01T05:38:42;79348.78;;;-146.33
37414;BMP280;23279;46.472;30.760;2023-01-01T05:41:09;79354.88;;;-146.33
37414;BMP280;23279;46.472;30.760;2023-01-01T05:43:36;79371.16;;;-146.33
37414;BMP280;23279;46.472;30.760;2023-01-01T05:46:04;79369.13;;;-146.33
37414;BMP280;23279;46.472;30.760;2023-01-01T05:48:29;79367.09;;;-146.33
37414;BMP280;23279;46.472;30.760;2023-01-01T05:51:10;79361.00;;;-146.33
37414;BMP280;23279;46.472;30.760;2023-01-01T05:53:36;79361.00;;;-146.33
37414;BMP280;23279;46.472;30.760;2023-01-01T05:56:02;79348.78;;;-146.33
37414;BMP280;23279;46.472;30.760;2023-01-01T05:58:28;79361.00;;;-146.33
37414;BMP280;23279;46.472;30.760;2023-01-01T06:00:54;79356.91;;;-146.33
37414;BMP280;23279;46.472;30.760;2023-01-01T06:03:20;79348.78;;;-146.33
37414;BMP280;23279;46.472;30.760;2023-01-01T06:05:46;79352.84;;;-146.33
37414;BMP280;23279;46.472;30.760;2023-01-01T06:08:11;79361.00;;;-146.33
37414;BMP280;23279;46.472;30.760;2023-01-01T06:10:37;79354.88;;;-146.33
37414;BMP280;23279;46.472;30.760;2023-01-01T06:13:02;79358.94;;;-146.33
37414;BMP280;23279;46.472;30.760;2023-01-01T06:15:28;79358.94;;;-146.33
37414;BMP280;23279;46.472;30.760;2023-01-01T06:17:53;79346.75;;;-146.33
37414;BMP280;23279;46.472;30.760;2023-01-01T06:20:19;79332.50;;;-146.33
37414;BMP280;23279;46.472;30.760;2023-01-01T06:22:44;79326.38;;;-146.33
37414;BMP280;23279;46.472;30.760;2023-01-01T06:25:10;79322.31;;;-146.33
37414;BMP280;23279;46.472;30.760;2023-01-01T06:27:36;79328.41;;;-146.33
37414;BMP280;23279;46.472;30.760;2023-01-01T06:30:03;79318.25;;;-146.33
37414;BMP280;23279;46.472;30.760;2023-01-01T06:32:28;79334.53;;;-146.33
37414;BMP280;23279;46.472;30.760;2023-01-01T06:34:54;79334.53;;;-146.33
37414;BMP280;23279;46.472;30.760;2023-01-01T06:37:19;79310.09;;;-146.33
37414;BMP280;23279;46.472;30.760;2023-01-01T06:39:45;79320.28;;;-146.33
37414;BMP280;23279;46.472;30.760;2023-01-01T06:42:10;79322.31;;;-146.33
37414;BMP280;23279;46.472;30.760;2023-01-01T06:44:35;79340.63;;;-146.33
37414;BMP280;23279;46.472;30.760;2023-01-01T06:47:01;79342.66;;;-146.33
37414;BMP280;23279;46.472;30.760;2023-01-01T06:49:26;79356.91;;;-146.33
37414;BMP280;23279;46.472;30.760;2023-01-01T06:51:51;79356.91;;;-146.33
37414;BMP280;23279;46.472;30.760;2023-01-01T06:54:17;79354.88;;;-146.33
37414;BMP280;23279;46.472;30.760;2023-01-01T06:56:42;79358.94;;;-146.33
37414;BMP280;23279;46.472;30.760;2023-01-01T06:59:08;79350.81;;;-146.33
37414;BMP280;23279;46.472;30.760;2023-01-01T07:01:35;79371.16;;;-146.33
37414;BMP280;23279;46.472;30.760;2023-01-01T07:04:03;79387.47;;;-146.33
37414;BMP280;23279;46.472;30.760;2023-01-01T07:06:30;79418.00;;;-146.33
37414;BMP280;23279;46.472;30.760;2023-01-01T07:08:56;79448.53;;;-146.33
37414;BMP280;23279;46.472;30.760;2023-01-01T07:11:22;79481.09;;;-146.33
37414;BMP280;23279;46.472;30.760;2023-01-01T07:13:47;79497.41;;;-146.33
37414;BMP280;23279;46.472;30.760;2023-01-01T07:16:13;79497.41;;;-146.33
37414;BMP280;23279;46.472;30.760;2023-01-01T07:18:39;79501.47;;;-146.33
37414;BMP280;23279;46.472;30.760;2023-01-01T07:21:05;79509.59;;;-146.33
37414;BMP280;23279;46.472;30.760;2023-01-01T07:23:33;79497.41;;;-146.33
37414;BMP280;23279;46.472;30.760;2023-01-01T07:25:59;79503.50;;;-146.33
37414;BMP280;23279;46.472;30.760;2023-01-01T07:28:25;79542.19;;;-146.33
37414;BMP280;23279;46.472;30.760;2023-01-01T07:30:51;79552.38;;;-146.33
37414;BMP280;23279;46.472;30.760;2023-01-01T07:33:22;79552.38;;;-146.33
37414;BMP280;23279;46.472;30.760;2023-01-01T07:35:48;79576.81;;;-146.33
37414;BMP280;23279;46.472;30.760;2023-01-01T07:38:14;79580.88;;;-146.33
37414;BMP280;23279;46.472;30.760;2023-01-01T07:40:40;79582.91;;;-146.33
37414;BMP280;23279;46.472;30.760;2023-01-01T07:43:06;79586.97;;;-146.33
37414;BMP280;23279;46.472;30.760;2023-01-01T07:45:32;79593.09;;;-146.33
37414;BMP280;23279;46.472;30.760;2023-01-01T07:47:58;79607.34;;;-146.33
37414;BMP280;23279;46.472;30.760;2023-01-01T07:50:26;79595.13;;;-146.33
37414;BMP280;23279;46.472;30.760;2023-01-01T07:52:51;79611.41;;;-146.33
37414;BMP280;23279;46.472;30.760;2023-01-01T07:55:18;79619.56;;;-146.33
37414;BMP280;23279;46.472;30.760;2023-01-01T07:57:44;79635.84;;;-146.33
37414;BMP280;23279;46.472;30.760;2023-01-01T08:00:13;79641.94;;;-146.33
37414;BMP280;23279;46.472;30.760;2023-01-01T08:02:38;79662.31;;;-146.33
37414;BMP280;23279;46.472;30.760;2023-01-01T08:05:05;79694.88;;;-146.33
37414;BMP280;23279;46.472;30.760;2023-01-01T08:07:31;79688.78;;;-146.33
37414;BMP280;23279;46.472;30.760;2023-01-01T08:09:56;79711.19;;;-146.33
37414;BMP280;23279;46.472;30.760;2023-01-01T08:12:22;79729.50;;;-146.33
37414;BMP280;23279;46.472;30.760;2023-01-01T08:14:47;79717.28;;;-146.33
37414;BMP280;23279;46.472;30.760;2023-01-01T08:17:12;79717.28;;;-146.33
37414;BMP280;23279;46.472;30.760;2023-01-01T08:19:38;79717.28;;;-146.33
37414;BMP280;23279;46.472;30.760;2023-01-01T08:22:03;79717.28;;;-146.33
37414;BMP280;23279;46.472;30.760;2023-01-01T08:24:29;79723.41;;;-146.33
37414;BMP280;23279;46.472;30.760;2023-01-01T08:26:54;79701.00;;;-146.33
37414;BMP280;23279;46.472;30.760;2023-01-01T08:29:20;79684.72;;;-146.33
37414;BMP280;23279;46.472;30.760;2023-01-01T08:31:45;79672.50;;;-146.33
37414;BMP280;23279;46.472;30.760;2023-01-01T08:34:11;79680.63;;;-146.33
37414;BMP280;23279;46.472;30.760;2023-01-01T08:36:37;79688.78;;;-146.33
37414;BMP280;23279;46.472;30.760;2023-01-01T08:39:05;79709.13;;;-146.33
37414;BMP280;23279;46.472;30.760;2023-01-01T08:41:30;79711.19;;;-146.33
37414;BMP280;23279;46.472;30.760;2023-01-01T08:43:55;79725.44;;;-146.33
37414;BMP280;23279;46.472;30.760;2023-01-01T08:46:21;79715.25;;;-146.33
37414;BMP280;23279;46.472;30.760;2023-01-01T08:48:46;79721.34;;;-146.33
37414;BMP280;23279;46.472;30.760;2023-01-01T08:51:12;79703.03;;;-146.33
37414;BMP280;23279;46.472;30.760;2023-01-01T08:53:37;79725.44;;;-146.33
37414;BMP280;23279;46.472;30.760;2023-01-01T08:56:06;79721.34;;;-146.33
37414;BMP280;23279;46.472;30.760;2023-01-01T08:58:33;79739.69;;;-146.33
37414;BMP280;23279;46.472;30.760;2023-01-01T09:00:59;79749.88;;;-146.33
37414;BMP280;23279;46.472;30.760;2023-01-01T09:03:25;79737.66;;;-146.33
37414;BMP280;23279;46.472;30.760;2023-01-01T09:05:50;79751.91;;;-146.33
37414;BMP280;23279;46.472;30.760;2023-01-01T09:08:16;79729.50;;;-146.33
37414;BMP280;23279;46.472;30.760;2023-01-01T09:10:42;79721.34;;;-146.33
37414;BMP280;23279;46.472;30.760;2023-01-01T09:13:12;79743.75;;;-146.33
37414;BMP280;23279;46.472;30.760;2023-01-01T09:15:38;79737.66;;;-146.33
37414;BMP280;23279;46.472;30.760;2023-01-01T09:18:04;79719.31;;;-146.33
37414;BMP280;23279;46.472;30.760;2023-01-01T09:20:29;79696.94;;;-146.33
37414;BMP280;23279;46.472;30.760;2023-01-01T09:22:55;79692.84;;;-146.33
37414;BMP280;23279;46.472;30.760;2023-01-01T09:25:21;79701.00;;;-146.33
37414;BMP280;23279;46.472;30.760;2023-01-01T09:27:46;79696.94;;;-146.33
37414;BMP280;23279;46.472;30.760;2023-01-01T09:30:13;79684.72;;;-146.33
37414;BMP280;23279;46.472;30.760;2023-01-01T09:32:39;79672.50;;;-146.33
37414;BMP280;23279;46.472;30.760;2023-01-01T09:35:05;79652.13;;;-146.33
37414;BMP280;23279;46.472;30.760;2023-01-01T09:37:30;79631.78;;;-146.33
37414;BMP280;23279;46.472;30.760;2023-01-01T09:39:56;79609.38;;;-146.33
37414;BMP280;23279;46.472;30.760;2023-01-01T09:45:27;79593.09;;;-146.33
37414;BMP280;23279;46.472;30.760;2023-01-01T09:48:00;79572.72;;;-146.33
37414;BMP280;23279;46.472;30.760;2023-01-01T09:50:35;79548.28;;;-146.33
37414;BMP280;23279;46.472;30.760;2023-01-01T09:53:16;79529.97;;;-146.33
37414;BMP280;23279;46.472;30.760;2023-01-01T09:55:55;79534.03;;;-146.33
37414;BMP280;23279;46.472;30.760;2023-01-01T09:58:31;79546.25;;;-146.33
37414;BMP280;23279;46.472;30.760;2023-01-01T10:01:02;79532.00;;;-146.33
37414;BMP280;23279;46.472;30.760;2023-01-01T10:11:46;79462.78;;;-146.33
37414;BMP280;23279;46.472;30.760;2023-01-01T10:14:25;79452.59;;;-146.33
37414;BMP280;23279;46.472;30.760;2023-01-01T10:16:54;79444.47;;;-146.33
37414;BMP280;23279;46.472;30.760;2023-01-01T10:19:34;79452.59;;;-146.33
37414;BMP280;23279;46.472;30.760;2023-01-01T10:22:10;79444.47;;;-146.33
37414;BMP280;23279;46.472;30.760;2023-01-01T10:24:55;79452.59;;;-146.33
37414;BMP280;23279;46.472;30.760;2023-01-01T10:27:38;79452.59;;;-146.33
37414;BMP280;23279;46.472;30.760;2023-01-01T10:30:14;79446.50;;;-146.33
37414;BMP280;23279;46.472;30.760;2023-01-01T10:32:40;79442.44;;;-146.33
37414;BMP280;23279;46.472;30.760;2023-01-01T10:35:19;79436.31;;;-146.33
37414;BMP280;23279;46.472;30.760;2023-01-01T10:37:46;79446.50;;;-146.33
37414;BMP280;23279;46.472;30.760;2023-01-01T10:40:19;79452.59;;;-146.33
37414;BMP280;23279;46.472;30.760;2023-01-01T10:42:50;79452.59;;;-146.33
37414;BMP280;23279;46.472;30.760;2023-01-01T10:51:06;79432.25;;;-146.33
37414;BMP280;23279;46.472;30.760;2023-01-01T10:53:50;79420.03;;;-146.33
37414;BMP280;23279;46.472;30.760;2023-01-01T10:56:21;79409.84;;;-146.33
37414;BMP280;23279;46.472;30.760;2023-01-01T10:58:49;79393.56;;;-146.33
37414;BMP280;23279;46.472;30.760;2023-01-01T11:04:18;79344.69;;;-146.33
37414;BMP280;23279;46.472;30.760;2023-01-01T11:06:45;79322.31;;;-146.33
37414;BMP280;23279;46.472;30.760;2023-01-01T11:09:25;79326.38;;;-146.33
37414;BMP280;23279;46.472;30.760;2023-01-01T11:11:58;79318.25;;;-146.33
37414;BMP280;23279;46.472;30.760;2023-01-01T11:14:27;79324.34;;;-146.33
37414;BMP280;23279;46.472;30.760;2023-01-01T11:16:54;79338.59;;;-146.33
37414;BMP280;23279;46.472;30.760;2023-01-01T11:19:34;79338.59;;;-146.33
37414;BMP280;23279;46.472;30.760;2023-01-01T11:22:01;79316.19;;;-146.33
37414;BMP280;23279;46.472;30.760;2023-01-01T11:24:29;79301.94;;;-146.33
37414;BMP280;23279;46.472;30.760;2023-01-01T11:27:20;79289.72;;;-146.33
37414;BMP280;23279;46.472;30.760;2023-01-01T11:29:47;79285.66;;;-146.33
37414;BMP280;23279;46.472;30.760;2023-01-01T11:32:33;79291.78;;;-146.33
37414;BMP280;23279;46.472;30.760;2023-01-01T11:35:04;79285.66;;;-146.33
37414;BMP280;23279;46.472;30.760;2023-01-01T11:37:33;79306.03;;;-146.33
37414;BMP280;23279;46.472;30.760;2023-01-01T11:40:03;79299.91;;;-146.33
37414;BMP280;23279;46.472;30.760;2023-01-01T11:42:32;79299.91;;;-146.33
37414;BMP280;23279;46.472;30.760;2023-01-01T11:45:18;79295.84;;;-146.33
37414;BMP280;23279;46.472;30.760;2023-01-01T11:47:44;79322.31;;;-146.33
37414;BMP280;23279;46.472;30.760;2023-01-01T11:50:52;79330.44;;;-146.33
37414;BMP280;23279;46.472;30.760;2023-01-01T11:53:36;79314.16;;;-146.33
37414;BMP280;23279;46.472;30.760;2023-01-01T11:56:10;79310.09;;;-146.33
37414;BMP280;23279;46.472;30.760;2023-01-01T11:58:52;79318.25;;;-146.33
37414;BMP280;23279;46.472;30.760;2023-01-01T12:01:25;79328.41;;;-146.33
37414;BMP280;23279;46.472;30.760;2023-01-01T12:04:00;79322.31;;;-146.33
37414;BMP280;23279;46.472;30.760;2023-01-01T12:06:30;79326.38;;;-146.33
37414;BMP280;23279;46.472;30.760;2023-01-01T12:11:47;79316.19;;;-146.33
37414;BMP280;23279;46.472;30.760;2023-01-01T12:14:29;79322.31;;;-146.33
37414;BMP280;23279;46.472;30.760;2023-01-01T12:17:00;79326.38;;;-146.33
37414;BMP280;23279;46.472;30.760;2023-01-01T12:22:19;79322.31;;;-146.33
37414;BMP280;23279;46.472;30.760;2023-01-01T12:24:46;79316.19;;;-146.33
37414;BMP280;23279;46.472;30.760;2023-01-01T12:36:09;79265.31;;;-146.33
37414;BMP280;23279;46.472;30.760;2023-01-01T12:46:45;79293.81;;;-146.33
37414;BMP280;23279;46.472;30.760;2023-01-01T12:49:34;79306.03;;;-146.33
37414;BMP280;23279;46.472;30.760;2023-01-01T12:52:24;79310.09;;;-146.33
37414;BMP280;23279;46.472;30.760;2023-01-01T12:57:47;79257.16;;;-146.33
37414;BMP280;23279;46.472;30.760;2023-01-01T13:00:18;79220.53;;;-146.33
37414;BMP280;23279;46.472;30.760;2023-01-01T13:02:49;79232.72;;;-146.33
37414;BMP280;23279;46.472;30.760;2023-01-01T13:05:23;79194.06;;;-146.33
37414;BMP280;23279;46.472;30.760;2023-01-01T13:07:53;79185.91;;;-146.33
37414;BMP280;23279;46.472;30.760;2023-01-01T13:10:28;79177.75;;;-146.33
37414;BMP280;23279;46.472;30.760;2023-01-01T13:12:55;79202.19;;;-146.33
37414;BMP280;23279;46.472;30.760;2023-01-01T13:18:06;79291.78;;;-146.33
37414;BMP280;23279;46.472;30.760;2023-01-01T13:20:35;79312.13;;;-146.33
37414;BMP280;23279;46.472;30.760;2023-01-01T13:23:02;79322.31;;;-146.33
37414;BMP280;23279;46.472;30.760;2023-01-01T13:25:28;79358.94;;;-146.33
37414;BMP280;23279;46.472;30.760;2023-01-01T13:35:44;79460.75;;;-146.33
37414;BMP280;23279;46.472;30.760;2023-01-01T13:38:54;79468.88;;;-146.33
37414;BMP280;23279;46.472;30.760;2023-01-01T13:44:11;79509.59;;;-146.33
37414;BMP280;23279;46.472;30.760;2023-01-01T13:52:26;79532.00;;;-146.33
37414;BMP280;23279;46.472;30.760;2023-01-01T14:02:35;79538.13;;;-146.33
37414;BMP280;23279;46.472;30.760;2023-01-01T14:07:40;79525.91;;;-146.33
37414;BMP280;23279;46.472;30.760;2023-01-01T14:12:52;79507.56;;;-146.33
37414;BMP280;23279;46.472;30.760;2023-01-01T14:17:51;79489.25;;;-146.33
37414;BMP280;23279;46.472;30.760;2023-01-01T14:20:18;79460.75;;;-146.33
37414;BMP280;23279;46.472;30.760;2023-01-01T14:22:45;79460.75;;;-146.33
37414;BMP280;23279;46.472;30.760;2023-01-01T14:25:37;79448.53;;;-146.33
37414;BMP280;23279;46.472;30.760;2023-01-01T14:28:14;79440.38;;;-146.33
37414;BMP280;23279;46.472;30.760;2023-01-01T14:30:43;79424.09;;;-146.33
37414;BMP280;23279;46.472;30.760;2023-01-01T14:33:20;79413.94;;;-146.33
37414;BMP280;23279;46.472;30.760;2023-01-01T14:35:51;79391.53;;;-146.33
37414;BMP280;23279;46.472;30.760;2023-01-01T14:41:10;79379.31;;;-146.33
37414;BMP280;23279;46.472;30.760;2023-01-01T14:43:37;79358.94;;;-146.33
37414;BMP280;23279;46.472;30.760;2023-01-01T14:46:05;79344.69;;;-146.33
37414;BMP280;23279;46.472;30.760;2023-01-01T14:48:31;79326.38;;;-146.33
37414;BMP280;23279;46.472;30.760;2023-01-01T14:50:57;79318.25;;;-146.33
37414;BMP280;23279;46.472;30.760;2023-01-01T14:53:29;79316.19;;;-146.33
37414;BMP280;23279;46.472;30.760;2023-01-01T14:55:56;79310.09;;;-146.33
37414;BMP280;23279;46.472;30.760;2023-01-01T14:58:24;79297.88;;;-146.33
37414;BMP280;23279;46.472;30.760;2023-01-01T15:00:50;79287.69;;;-146.33
37414;BMP280;23279;46.472;30.760;2023-01-01T15:03:22;79281.59;;;-146.33
37414;BMP280;23279;46.472;30.760;2023-01-01T15:06:01;79267.34;;;-146.33
37414;BMP280;23279;46.472;30.760;2023-01-01T15:08:27;79255.13;;;-146.33
37414;BMP280;23279;46.472;30.760;2023-01-01T15:10:53;79240.88;;;-146.33
37414;BMP280;23279;46.472;30.760;2023-01-01T15:13:23;79220.53;;;-146.33
37414;BMP280;23279;46.472;30.760;2023-01-01T15:15:51;79208.31;;;-146.33
37414;BMP280;23279;46.472;30.760;2023-01-01T15:21:09;79196.09;;;-146.33
37414;BMP280;23279;46.472;30.760;2023-01-01T15:23:37;79179.81;;;-146.33
37414;BMP280;23279;46.472;30.760;2023-01-01T15:26:07;79163.50;;;-146.33
37414;BMP280;23279;46.472;30.760;2023-01-01T15:28:34;79155.38;;;-146.33
37414;BMP280;23279;46.472;30.760;2023-01-01T15:30:59;79143.16;;;-146.33
37414;BMP280;23279;46.472;30.760;2023-01-01T15:33:25;79139.09;;;-146.33